createdAt,value
2023-04-25T00:02:03.895Z,3.17
2023-04-25T00:04:32.328Z,3.12
2023-04-25T00:07:03.799Z,4.05
2023-04-25T00:09:31.984Z,3.75
2023-04-25T00:11:59.927Z,4.28
2023-04-25T00:14:28.111Z,2.65
2023-04-25T00:16:56.490Z,3.00
2023-04-25T00:19:24.435Z,3.08
2023-04-25T00:21:52.431Z,3.83
2023-04-25T00:24:20.354Z,3.90
2023-04-25T00:26:48.299Z,4.60
2023-04-25T00:29:16.230Z,4.75
2023-04-25T00:31:44.228Z,3.72
2023-04-25T00:34:12.062Z,2.40
2023-04-25T00:36:40.451Z,2.95
2023-04-25T00:39:08.759Z,2.78
2023-04-25T00:41:37.883Z,4.00
2023-04-25T00:44:07.431Z,3.97
2023-04-25T00:46:35.297Z,2.67
2023-04-25T00:49:03.433Z,4.80
2023-04-25T00:51:32.473Z,4.10
2023-04-25T00:54:00.632Z,4.78
2023-04-25T00:56:28.620Z,4.37
2023-04-25T00:58:59.212Z,2.80
2023-04-25T01:01:27.431Z,3.85
2023-04-25T01:03:56.440Z,5.55
2023-04-25T01:06:24.825Z,2.47
2023-04-25T01:08:54.050Z,4.07
2023-04-25T01:11:22.268Z,2.53
2023-04-25T01:13:50.380Z,2.60
2023-04-25T01:16:18.560Z,3.17
2023-04-25T01:18:47.750Z,2.58
2023-04-25T01:21:15.923Z,3.78
2023-04-25T01:23:44.789Z,3.58
2023-04-25T01:26:13.833Z,3.03
2023-04-25T01:28:45.489Z,2.97
2023-04-25T01:31:14.579Z,2.58
2023-04-25T01:33:42.773Z,2.70
2023-04-25T01:36:11.497Z,3.72
2023-04-25T01:38:39.437Z,2.47
2023-04-25T01:41:07.731Z,2.45
2023-04-25T01:43:36.018Z,6.53
2023-04-25T01:46:04.225Z,3.40
2023-04-25T01:48:32.208Z,4.12
2023-04-25T01:51:00.638Z,3.12
2023-04-25T01:53:28.802Z,2.75
2023-04-25T01:55:56.859Z,3.35
2023-04-25T01:58:24.964Z,1.92
2023-04-25T02:00:52.857Z,2.92
2023-04-25T02:03:20.796Z,1.90
2023-04-25T02:05:48.804Z,4.70
2023-04-25T02:08:16.788Z,2.65
2023-04-25T02:10:44.844Z,3.60
2023-04-25T02:13:12.838Z,2.60
2023-04-25T02:15:40.786Z,3.10
2023-04-25T02:18:08.785Z,2.50
2023-04-25T02:20:36.642Z,3.22
2023-04-25T02:23:05.176Z,3.42
2023-04-25T02:25:33.138Z,2.42
2023-04-25T02:28:01.143Z,3.42
2023-04-25T02:30:29.163Z,2.05
2023-04-25T02:32:57.091Z,3.95
2023-04-25T02:35:25.029Z,2.30
2023-04-25T02:37:52.897Z,4.55
2023-04-25T02:40:20.835Z,3.22
2023-04-25T02:42:48.984Z,4.80
2023-04-25T02:45:17.162Z,2.83
2023-04-25T02:47:45.074Z,3.42
2023-04-25T02:50:13.702Z,3.90
2023-04-25T02:52:41.654Z,3.17
2023-04-25T02:55:09.929Z,4.68
2023-04-25T02:57:37.827Z,6.22
2023-04-25T03:00:07.459Z,2.90
2023-04-25T03:02:35.452Z,3.80
2023-04-25T03:05:03.391Z,2.72
2023-04-25T03:07:31.295Z,3.30
2023-04-25T03:09:59.290Z,5.45
2023-04-25T03:12:27.213Z,2.58
2023-04-25T03:14:55.115Z,3.97
2023-04-25T03:17:23.167Z,2.90
2023-04-25T03:19:51.047Z,5.80
2023-04-25T03:22:18.897Z,3.47
2023-04-25T03:24:46.890Z,4.93
2023-04-25T03:27:14.963Z,4.75
2023-04-25T03:29:42.938Z,7.93
2023-04-25T03:32:10.919Z,2.42
2023-04-25T03:34:38.932Z,4.82
2023-04-25T03:37:06.939Z,3.15
2023-04-25T03:39:34.887Z,3.78
2023-04-25T03:42:03.302Z,3.90
2023-04-25T03:44:31.144Z,4.97
2023-04-25T03:46:59.399Z,3.80
2023-04-25T03:49:27.613Z,2.58
2023-04-25T03:51:55.505Z,5.03
2023-04-25T03:54:23.386Z,3.47
2023-04-25T03:56:51.299Z,3.10
2023-04-25T03:59:19.151Z,2.97
2023-04-25T04:01:47.014Z,3.50
2023-04-25T04:04:15.311Z,5.43
2023-04-25T04:06:44.520Z,5.25
2023-04-25T04:09:13.654Z,4.45
2023-04-25T04:11:41.721Z,2.50
2023-04-25T04:14:10.392Z,4.07
2023-04-25T04:16:38.548Z,3.25
2023-04-25T04:19:06.574Z,5.07
2023-04-25T04:21:35.806Z,4.40
2023-04-25T04:24:04.120Z,6.40
2023-04-25T04:26:34.207Z,4.62
2023-04-25T04:29:02.494Z,3.40
2023-04-25T04:31:30.509Z,2.65
2023-04-25T04:33:58.575Z,3.90
2023-04-25T04:36:26.895Z,4.18
2023-04-25T04:38:55.030Z,4.82
2023-04-25T04:41:22.976Z,4.40
2023-04-25T04:43:51.466Z,2.60
2023-04-25T04:46:20.768Z,5.10
2023-04-25T04:48:48.644Z,3.33
2023-04-25T04:51:16.574Z,2.95
2023-04-25T04:53:44.436Z,3.00
2023-04-25T04:56:12.342Z,5.32
2023-04-25T04:58:40.394Z,3.35
2023-04-25T05:01:08.451Z,3.30
2023-04-25T05:03:36.631Z,3.83
2023-04-25T05:06:04.773Z,3.22
2023-04-25T05:08:32.642Z,3.00
2023-04-25T05:11:00.501Z,2.20
2023-04-25T05:13:28.447Z,3.12
2023-04-25T05:15:56.263Z,2.90
2023-04-25T05:18:24.383Z,3.78
2023-04-25T05:20:52.317Z,6.00
2023-04-25T05:23:20.175Z,3.60
2023-04-25T05:25:48.045Z,3.20
2023-04-25T05:28:15.907Z,2.17
2023-04-25T05:30:43.742Z,4.20
2023-04-25T05:33:11.654Z,3.28
2023-04-25T05:35:39.626Z,3.37
2023-04-25T05:38:07.538Z,3.33
2023-04-25T05:40:35.527Z,6.03
2023-04-25T05:43:03.725Z,4.00
2023-04-25T05:45:31.798Z,5.28
2023-04-25T05:47:59.703Z,4.30
2023-04-25T05:50:27.716Z,5.68
2023-04-25T05:52:55.610Z,5.53
2023-04-25T05:55:23.516Z,3.75
2023-04-25T05:57:51.819Z,4.62
2023-04-25T06:00:21.189Z,4.55
2023-04-25T06:02:49.456Z,3.62
2023-04-25T06:05:17.639Z,4.12
2023-04-25T06:07:46.128Z,3.33
2023-04-25T06:10:14.046Z,4.50
2023-04-25T06:12:42.077Z,3.22
2023-04-25T06:15:24.561Z,4.50
2023-04-25T06:17:55.875Z,3.95
2023-04-25T06:20:26.213Z,4.10
2023-04-25T06:22:54.846Z,4.25
2023-04-25T06:25:23.437Z,2.83
2023-04-25T06:27:51.358Z,3.17
2023-04-25T06:30:24.573Z,6.53
2023-04-25T06:32:52.588Z,2.55
2023-04-25T06:35:20.561Z,6.53
2023-04-25T06:37:48.512Z,3.22
2023-04-25T06:40:17.327Z,4.28
2023-04-25T06:42:45.336Z,2.67
2023-04-25T06:45:13.276Z,3.33
2023-04-25T06:47:41.157Z,5.70
2023-04-25T06:50:09.598Z,12.73
2023-04-25T06:52:37.670Z,5.25
2023-04-25T06:55:07.224Z,2.97
2023-04-25T06:57:35.154Z,4.75
2023-04-25T07:00:03.105Z,4.28
2023-04-25T07:02:31.141Z,2.75
2023-04-25T07:05:02.127Z,4.20
2023-04-25T07:07:30.123Z,2.72
2023-04-25T07:09:58.300Z,4.03
2023-04-25T07:12:26.168Z,6.37
2023-04-25T07:14:54.135Z,3.20
2023-04-25T07:17:22.029Z,3.20
2023-04-25T07:19:49.928Z,5.72
2023-04-25T07:22:17.932Z,5.32
2023-04-25T07:24:49.886Z,7.05
2023-04-25T07:27:17.952Z,4.28
2023-04-25T07:29:45.939Z,3.12
2023-04-25T07:32:15.830Z,7.57
2023-04-25T07:34:43.932Z,4.25
2023-04-25T07:37:11.999Z,3.12
2023-04-25T07:39:39.940Z,3.97
2023-04-25T07:42:10.344Z,13.05
2023-04-25T07:44:40.895Z,5.32
2023-04-25T07:47:12.604Z,10.45
2023-04-25T07:49:40.678Z,6.25
2023-04-25T07:52:08.906Z,4.07
2023-04-25T07:54:36.895Z,3.30
2023-04-25T07:57:04.947Z,3.00
2023-04-25T07:59:32.810Z,3.10
2023-04-25T08:02:01.185Z,4.90
2023-04-25T08:04:29.403Z,4.03
2023-04-25T08:06:57.288Z,2.95
2023-04-25T08:09:25.230Z,3.85
2023-04-25T08:11:53.180Z,2.53
2023-04-25T08:14:21.084Z,6.65
2023-04-25T08:16:49.043Z,3.15
2023-04-25T08:19:17.028Z,5.37
2023-04-25T08:21:44.978Z,5.15
2023-04-25T08:24:13.354Z,4.97
2023-04-25T08:26:42.075Z,3.10
2023-04-25T08:29:09.932Z,3.15
2023-04-25T08:31:37.864Z,3.87
2023-04-25T08:34:05.771Z,3.53
2023-04-25T08:36:39.164Z,3.37
2023-04-25T08:39:08.324Z,3.25
2023-04-25T08:41:38.660Z,3.33
2023-04-25T08:44:09.534Z,3.35
2023-04-25T08:46:40.182Z,3.72
2023-04-25T08:49:08.240Z,3.35
2023-04-25T08:51:38.487Z,3.15
2023-04-25T08:56:47.002Z,3.55
2023-04-25T08:59:15.401Z,2.80
2023-04-25T09:01:43.515Z,3.45
2023-04-25T09:04:11.678Z,3.78
2023-04-25T09:06:39.799Z,3.12
2023-04-25T09:09:09.773Z,2.90
2023-04-25T09:11:38.911Z,5.78
2023-04-25T09:14:22.995Z,3.22
2023-04-25T09:17:00.062Z,2.58
2023-04-25T09:19:40.430Z,2.65
2023-04-25T09:22:10.305Z,3.15
2023-04-25T09:24:45.785Z,4.22
2023-04-25T09:27:20.027Z,2.22
2023-04-25T09:29:48.691Z,1.90
2023-04-25T09:32:25.728Z,2.22
2023-04-25T09:34:55.614Z,3.45
2023-04-25T09:37:25.635Z,2.08
2023-04-25T09:40:02.788Z,2.45
2023-04-25T09:42:33.702Z,1.60
2023-04-25T09:45:04.552Z,1.83
2023-04-25T09:47:32.524Z,1.20
2023-04-25T09:50:00.824Z,1.33
2023-04-25T09:52:28.872Z,2.10
2023-04-25T09:54:56.993Z,1.42
2023-04-25T09:57:26.365Z,1.30
2023-04-25T09:59:56.555Z,1.65
2023-04-25T10:02:27.604Z,1.87
2023-04-25T10:04:57.873Z,2.33
2023-04-25T10:07:33.124Z,1.62
2023-04-25T10:10:05.172Z,1.10
2023-04-25T10:12:35.314Z,2.25
2023-04-25T10:15:05.064Z,1.02
2023-04-25T10:17:34.904Z,1.37
2023-04-25T10:20:07.317Z,2.60
2023-04-25T10:22:38.318Z,1.08
2023-04-25T10:25:08.354Z,0.88
2023-04-25T10:27:36.845Z,1.00
2023-04-25T10:30:06.647Z,1.25
2023-04-25T10:32:35.531Z,1.80
2023-04-25T10:35:15.086Z,1.50
2023-04-25T10:38:01.628Z,1.73
2023-04-25T10:40:29.759Z,0.90
2023-04-25T10:42:58.365Z,2.47
2023-04-25T10:45:26.341Z,0.70
2023-04-25T10:47:54.267Z,1.23
2023-04-25T10:50:22.318Z,0.85
2023-04-25T10:52:50.283Z,0.82
2023-04-25T10:55:18.246Z,1.40
2023-04-25T10:57:52.185Z,0.70
2023-04-25T11:00:25.762Z,0.68
2023-04-25T11:02:55.854Z,1.25
2023-04-25T11:05:27.248Z,0.80
2023-04-25T11:08:07.123Z,0.75
2023-04-25T11:10:39.314Z,0.62
2023-04-25T11:13:07.418Z,0.70
2023-04-25T11:15:35.412Z,0.60
2023-04-25T11:18:04.228Z,1.20
2023-04-25T11:20:32.290Z,1.10
2023-04-25T11:25:33.259Z,0.60
2023-04-25T11:28:03.759Z,0.60
2023-04-25T11:30:32.892Z,0.70
2023-04-25T11:33:01.193Z,1.37
2023-04-25T11:35:29.196Z,0.70
2023-04-25T11:37:57.217Z,0.75
2023-04-25T11:40:25.150Z,0.65
2023-04-25T11:42:53.821Z,0.70
2023-04-25T11:45:25.332Z,0.60
2023-04-25T11:47:53.928Z,1.00
2023-04-25T11:50:21.905Z,0.60
2023-04-25T11:52:50.664Z,0.62
2023-04-25T11:55:20.863Z,0.57
2023-04-25T11:57:55.061Z,0.62
2023-04-25T12:00:24.037Z,0.50
2023-04-25T12:02:56.622Z,0.60
2023-04-25T12:05:33.860Z,0.30
2023-04-25T12:08:18.684Z,0.45
2023-04-25T12:10:49.263Z,0.50
2023-04-25T12:13:25.213Z,0.40
2023-04-25T12:15:54.091Z,0.35
2023-04-25T12:18:23.747Z,0.43
2023-04-25T12:20:52.099Z,0.75
2023-04-25T12:23:29.222Z,0.30
2023-04-25T12:25:58.205Z,0.50
2023-04-25T12:28:29.618Z,0.57
2023-04-25T12:31:00.766Z,0.88
2023-04-25T12:33:31.048Z,1.17
2023-04-25T12:36:00.180Z,1.25
2023-04-25T12:38:33.286Z,1.75
2023-04-25T12:41:01.249Z,0.60
2023-04-25T12:43:29.258Z,1.37
2023-04-25T12:45:58.237Z,0.60
2023-04-25T12:48:26.487Z,0.68
2023-04-25T12:50:54.773Z,0.50
2023-04-25T12:53:24.498Z,0.60
2023-04-25T12:55:53.129Z,0.50
2023-04-25T12:58:22.299Z,0.82
2023-04-25T13:00:50.833Z,0.50
2023-04-25T13:03:18.873Z,1.25
2023-04-25T13:05:47.125Z,0.50
2023-04-25T13:08:14.945Z,0.40
2023-04-25T13:10:42.944Z,1.20
2023-04-25T13:13:10.984Z,0.62
2023-04-25T13:15:39.119Z,0.60
2023-04-25T13:18:09.967Z,0.90
2023-04-25T13:20:37.915Z,0.52
2023-04-25T13:23:05.880Z,2.30
2023-04-25T13:25:33.901Z,0.70
2023-04-25T13:28:01.962Z,0.57
2023-04-25T13:30:29.953Z,0.98
2023-04-25T13:33:05.340Z,1.40
2023-04-25T13:35:33.312Z,0.77
2023-04-25T13:38:01.433Z,2.10
2023-04-25T13:40:29.849Z,1.12
2023-04-25T13:42:58.241Z,1.02
2023-04-25T13:45:26.256Z,0.95
2023-04-25T13:47:54.241Z,0.85
2023-04-25T13:50:22.659Z,0.98
2023-04-25T13:52:50.826Z,1.08
2023-04-25T13:55:18.928Z,1.98
2023-04-25T13:57:46.861Z,1.15
2023-04-25T14:00:15.390Z,0.68
2023-04-25T14:02:43.449Z,0.85
2023-04-25T14:05:11.692Z,3.33
2023-04-25T14:07:39.777Z,1.33
2023-04-25T14:10:09.190Z,2.67
2023-04-25T14:12:37.318Z,1.27
2023-04-25T14:15:05.887Z,0.85
2023-04-25T14:17:33.973Z,1.60
2023-04-25T14:20:01.982Z,0.82
2023-04-25T14:22:29.898Z,0.88
2023-04-25T14:24:57.801Z,1.23
2023-04-25T14:27:28.542Z,2.05
2023-04-25T14:29:57.093Z,2.45
2023-04-25T14:32:24.993Z,2.40
2023-04-25T14:34:53.215Z,1.27
2023-04-25T14:37:21.178Z,1.10
2023-04-25T14:39:49.019Z,1.48
2023-04-25T14:42:16.928Z,1.17
2023-04-25T14:44:44.769Z,2.15
2023-04-25T14:47:12.734Z,1.10
2023-04-25T14:49:40.757Z,0.80
2023-04-25T14:52:08.727Z,1.75
2023-04-25T14:54:36.698Z,1.85
2023-04-25T14:57:04.669Z,1.15
2023-04-25T14:59:32.553Z,0.60
2023-04-25T15:02:00.483Z,0.70
2023-04-25T15:04:28.891Z,1.08
2023-04-25T15:06:57.251Z,1.25
2023-04-25T15:09:26.444Z,1.20
2023-04-25T15:11:54.387Z,1.08
2023-04-25T15:14:22.426Z,1.25
2023-04-25T15:16:50.310Z,0.80
2023-04-25T15:19:18.412Z,0.90
2023-04-25T15:21:46.391Z,1.80
2023-04-25T15:24:16.468Z,1.77
2023-04-25T15:26:44.432Z,1.10
2023-04-25T15:29:12.897Z,0.90
2023-04-25T15:31:40.805Z,1.73
2023-04-25T15:34:08.757Z,0.80
2023-04-25T15:36:36.751Z,1.00
2023-04-25T15:39:04.828Z,1.10
2023-04-25T15:41:32.718Z,1.27
2023-04-25T15:44:01.911Z,2.45
2023-04-25T15:46:32.437Z,1.95
2023-04-25T15:49:00.437Z,2.87
2023-04-25T15:51:29.466Z,2.83
2023-04-25T15:53:57.790Z,1.70
2023-04-25T15:56:25.719Z,1.40
2023-04-25T15:58:53.961Z,1.48
2023-04-25T16:01:25.572Z,1.50
2023-04-25T16:03:54.318Z,1.35
2023-04-25T16:06:22.453Z,1.17
2023-04-25T16:08:50.447Z,1.30
2023-04-25T16:11:18.371Z,0.85
2023-04-25T16:13:46.500Z,1.10
2023-04-25T16:16:16.584Z,1.48
2023-04-25T16:18:44.465Z,2.62
2023-04-25T16:21:17.344Z,1.37
2023-04-25T16:23:45.338Z,1.92
2023-04-25T16:26:13.357Z,2.00
2023-04-25T16:28:41.204Z,1.25
2023-04-25T16:31:09.404Z,1.17
2023-04-25T16:33:37.464Z,1.10
2023-04-25T16:36:05.586Z,1.48
2023-04-25T16:38:33.425Z,2.22
2023-04-25T16:41:01.327Z,0.93
2023-04-25T16:43:29.339Z,1.12
2023-04-25T16:45:57.438Z,1.23
2023-04-25T16:48:25.901Z,3.55
2023-04-25T16:50:55.618Z,1.17
2023-04-25T16:53:24.494Z,1.33
2023-04-25T16:55:52.561Z,1.10
2023-04-25T16:58:21.106Z,0.90
2023-04-25T17:00:49.250Z,0.70
2023-04-25T17:03:17.458Z,0.80
2023-04-25T17:05:45.754Z,0.73
2023-04-25T17:08:13.849Z,1.65
2023-04-25T17:10:41.865Z,0.98
2023-04-25T17:13:09.939Z,1.02
2023-04-25T17:15:37.834Z,1.10
2023-04-25T17:18:05.974Z,1.15
2023-04-25T17:20:34.056Z,0.88
2023-04-25T17:23:02.688Z,1.02
2023-04-25T17:25:32.146Z,0.70
2023-04-25T17:28:00.154Z,0.90
2023-04-25T17:30:28.863Z,0.88
2023-04-25T17:32:57.011Z,0.95
2023-04-25T17:35:25.092Z,0.90
2023-04-25T17:37:53.849Z,0.75
2023-04-25T17:40:22.229Z,1.15
2023-04-25T17:42:50.065Z,1.05
2023-04-25T17:45:18.837Z,0.70
2023-04-25T17:47:47.039Z,1.58
2023-04-25T17:50:17.971Z,0.90
2023-04-25T17:52:46.773Z,2.30
2023-04-25T17:55:14.753Z,0.90
2023-04-25T17:57:43.144Z,2.15
2023-04-25T18:00:13.721Z,1.90
2023-04-25T18:02:41.941Z,3.08
2023-04-25T18:05:12.875Z,1.15
2023-04-25T18:07:40.834Z,0.90
2023-04-25T18:10:10.224Z,1.50
2023-04-25T18:12:38.433Z,1.12
2023-04-25T18:15:08.234Z,2.37
2023-04-25T18:17:41.924Z,0.90
2023-04-25T18:20:17.045Z,0.65
2023-04-25T18:22:46.441Z,1.10
2023-04-25T18:25:15.132Z,1.02
2023-04-25T18:27:43.844Z,3.95
2023-04-25T18:30:15.132Z,1.02
2023-04-25T18:32:43.611Z,0.80
2023-04-25T18:35:11.702Z,1.17
2023-04-25T18:37:42.036Z,1.52
2023-04-25T18:40:14.288Z,1.52
2023-04-25T18:42:42.500Z,2.58
2023-04-25T18:45:10.966Z,3.00
2023-04-25T18:47:38.952Z,2.30
2023-04-25T18:50:08.139Z,1.60
2023-04-25T18:52:36.280Z,2.95
2023-04-25T18:55:04.488Z,1.70
2023-04-25T18:57:32.455Z,1.85
2023-04-25T19:00:00.544Z,1.35
2023-04-25T19:02:28.615Z,1.60
2023-04-25T19:04:56.536Z,1.58
2023-04-25T19:07:24.753Z,1.10
2023-04-25T19:09:52.796Z,1.02
2023-04-25T19:12:20.720Z,0.90
2023-04-25T19:14:48.708Z,1.70
2023-04-25T19:17:16.632Z,2.20
2023-04-25T19:19:44.568Z,1.20
2023-04-25T19:22:12.931Z,2.58
2023-04-25T19:24:41.140Z,1.35
2023-04-25T19:27:09.065Z,1.85
2023-04-25T19:29:37.484Z,2.28
2023-04-25T19:32:06.532Z,2.03
2023-04-25T19:34:34.497Z,1.50
2023-04-25T19:37:02.658Z,1.77
2023-04-25T19:39:30.626Z,1.85
2023-04-25T19:41:58.777Z,2.95
2023-04-25T19:44:27.113Z,2.87
2023-04-25T19:46:55.046Z,2.50
2023-04-25T19:49:23.513Z,2.22
2023-04-25T19:51:51.399Z,1.92
2023-04-25T19:54:20.242Z,1.98
2023-04-25T19:56:49.032Z,1.20
2023-04-25T19:59:17.595Z,1.23
2023-04-25T20:01:45.894Z,0.98
2023-04-25T20:04:14.149Z,1.12
2023-04-25T20:06:42.126Z,1.85
2023-04-25T20:09:10.827Z,1.60
2023-04-25T20:11:38.905Z,1.00
2023-04-25T20:14:07.069Z,1.05
2023-04-25T20:16:35.142Z,1.40
2023-04-25T20:19:03.010Z,1.00
2023-04-25T20:21:31.043Z,1.10
2023-04-25T20:23:59.634Z,1.52
2023-04-25T20:26:27.708Z,1.73
2023-04-25T20:28:55.788Z,1.55
2023-04-25T20:31:24.090Z,2.47
2023-04-25T20:33:52.067Z,1.00
2023-04-25T20:36:21.138Z,1.08
2023-04-25T20:38:49.374Z,1.42
2023-04-25T20:41:17.493Z,1.37
2023-04-25T20:43:45.494Z,1.23
2023-04-25T20:46:13.864Z,1.30
2023-04-25T20:48:41.965Z,1.20
2023-04-25T20:51:10.192Z,1.45
2023-04-25T20:53:38.016Z,1.48
2023-04-25T20:56:07.625Z,1.50
2023-04-25T20:58:35.614Z,1.30
2023-04-25T21:01:05.538Z,1.17
2023-04-25T21:03:35.118Z,1.35
2023-04-25T21:06:03.337Z,1.48
2023-04-25T21:08:31.270Z,2.72
2023-04-25T21:10:59.089Z,1.20
2023-04-25T21:13:28.618Z,1.15
2023-04-25T21:15:56.765Z,1.25
2023-04-25T21:18:24.742Z,1.20
2023-04-25T21:20:52.792Z,1.40
2023-04-25T21:23:21.268Z,1.40
2023-04-25T21:25:50.162Z,1.42
2023-04-25T21:28:18.191Z,2.20
2023-04-25T21:30:46.646Z,1.77
2023-04-25T21:33:15.220Z,1.70
2023-04-25T21:35:43.422Z,1.23
2023-04-25T21:38:11.383Z,1.87
2023-04-25T21:40:39.565Z,1.73
2023-04-25T21:43:07.620Z,1.30
2023-04-25T21:45:51.420Z,1.20
2023-04-25T21:48:24.343Z,1.33
2023-04-25T21:50:52.218Z,1.65
2023-04-25T21:53:20.157Z,1.42
2023-04-25T21:55:48.169Z,2.00
2023-04-25T21:58:16.253Z,1.30
2023-04-25T22:00:45.776Z,1.37
2023-04-25T22:03:16.186Z,1.35
2023-04-25T22:05:45.600Z,1.35
2023-04-25T22:08:13.939Z,1.42
2023-04-25T22:10:41.929Z,2.00
2023-04-25T22:13:09.950Z,1.48
2023-04-25T22:15:37.879Z,1.48
2023-04-25T22:18:06.913Z,1.35
2023-04-25T22:20:35.924Z,1.33
2023-04-25T22:23:04.541Z,1.25
2023-04-25T22:25:33.097Z,1.40
2023-04-25T22:28:01.031Z,1.50
2023-04-25T22:30:31.270Z,1.30
2023-04-25T22:32:59.424Z,1.45
2023-04-25T22:35:27.492Z,1.48
2023-04-25T22:37:55.742Z,1.37
2023-04-25T22:40:23.568Z,1.42
2023-04-25T22:42:51.649Z,3.53
2023-04-25T22:45:19.651Z,1.58
2023-04-25T22:47:47.717Z,1.40
2023-04-25T22:50:17.765Z,2.35
2023-04-25T22:52:45.678Z,1.65
2023-04-25T22:55:14.553Z,1.30
2023-04-25T22:57:42.755Z,3.05
2023-04-25T23:00:17.285Z,1.73
2023-04-25T23:02:47.061Z,1.25
2023-04-25T23:05:16.446Z,1.10
2023-04-25T23:07:47.678Z,1.10
2023-04-25T23:10:15.669Z,1.17
2023-04-25T23:12:43.590Z,1.40
2023-04-25T23:15:12.251Z,1.15
2023-04-25T23:17:40.656Z,1.20
2023-04-25T23:20:11.575Z,1.73
2023-04-25T23:22:40.288Z,1.20
2023-04-25T23:25:09.104Z,2.53
2023-04-25T23:27:37.188Z,1.98
2023-04-25T23:30:05.656Z,2.55
2023-04-25T23:32:33.858Z,1.37
2023-04-25T23:35:02.426Z,0.90
2023-04-25T23:37:31.752Z,1.30
2023-04-25T23:39:59.700Z,1.10
2023-04-25T23:42:27.798Z,1.52
2023-04-25T23:44:55.661Z,1.10
2023-04-25T23:47:23.610Z,1.25
2023-04-25T23:49:51.574Z,2.42
2023-04-25T23:52:19.471Z,1.27
2023-04-25T23:54:47.490Z,2.25
2023-04-25T23:57:15.386Z,1.08
2023-04-25T23:59:43.377Z,1.10
